Thor Fearless — 9V2183 — position and weather

sailwx.info

Track history (hours):
 
Tides and Currents Weather Stations Pressure Air Temp Water Temp Dewpoint Dewpoint Depression Visibility Wind Speed Wind Dir Waves Ship Positions

Thor Fearless

Last reported at 2018-Jun-15 22:55 UTC. Time now 2018-Jul-18 23:59 UTC.
Position N 41°12' E 029°06'.
Warning: this ship's position is 33 days out of date.

Length 190 m; draft 12.2 m.

Type: Cargo ship. MMSI: 566969000.

Date/timePositionNaut miles runAvg speedWind from/ knotsBaromVisibWave heightAir tempDewpointWater temp
2018-Jun-15 22:55N 41°12' E 029°06'3 6.8
2018-Jun-15 22:30N 41°15' E 029°08'4 7.7
2018-Jun-15 22:00N 41°19' E 029°08'4 8.0
2018-Jun-15 21:30N 41°23' E 029°08'0 0.6
2018-Jun-15 21:00N 41°23' E 029°07'0 0.2
2018-Jun-15 20:30N 41°23' E 029°07'0 0.1
2018-Jun-15 19:59N 41°23' E 029°08'0 0.2
2018-Jun-15 19:30N 41°23' E 029°08'0 0.2
2018-Jun-15 19:00N 41°23' E 029°08'0 0.2
2018-Jun-15 18:30N 41°23' E 029°08'0 0.1
2018-Jun-15 18:00N 41°23' E 029°08'0 0.3
2018-Jun-15 17:30N 41°23' E 029°08'0 0.4
2018-Jun-15 17:00N 41°23' E 029°08'0 0.4
2018-Jun-15 16:30N 41°23' E 029°09'0 0.5
2018-Jun-15 16:00N 41°23' E 029°09'0 0.5
2018-Jun-15 15:28N 41°23' E 029°09'0 0.5
2018-Jun-15 15:00N 41°24' E 029°09'0 0.5
2018-Jun-15 14:30N 41°24' E 029°10'0 0.4
2018-Jun-15 14:00N 41°24' E 029°10'0 0.3
2018-Jun-15 13:30N 41°24' E 029°10'0 0.3
2018-Jun-15 12:29N 41°24' E 029°10'0 0.4
2018-Jun-15 12:00N 41°24' E 029°10'0 0.4
2018-Jun-15 11:30N 41°25' E 029°10'0 0.3
2018-Jun-15 11:00N 41°25' E 029°10'2 2.3
2018-Jun-15 10:12N 41°24' E 029°13'2 8.6
2018-Jun-15 09:57N 41°25' E 029°16'5010.4
2018-Jun-15 05:07N 41°42' E 030°18'310.8
2018-Jun-15 04:50N 41°43' E 030°22'510.8
2018-Jun-15 04:23N 41°45' E 030°28'1111.0
2018-Jun-15 03:25N 41°49' E 030°41'511.0
2018-Jun-15 02:59N 41°50' E 030°47'610.9
2018-Jun-15 02:25N 41°52' E 030°55'610.9
2018-Jun-15 01:55N 41°54' E 031°02'2611.2
2018-Jun-14 23:33N 42°03' E 031°35'411.0
2018-Jun-14 23:13N 42°05' E 031°40'211.1
2018-Jun-14 23:00N 42°06' E 031°43'611.2
2018-Jun-14 22:28N 42°08' E 031°51'14911.2
2018-Jun-14 09:11N 42°59' E 035°00'11811.2
2018-Jun-13 22:38N 43°40' E 037°33'111.6
2018-Jun-13 22:30N 43°40' E 037°35'711.5
2018-Jun-13 21:52N 43°43' E 037°44'411.7
2018-Jun-13 21:30N 43°44' E 037°50'611.8
2018-Jun-13 21:00N 43°46' E 037°58'611.5
2018-Jun-13 20:30N 43°48' E 038°05'611.2
2018-Jun-13 20:00N 43°50' E 038°12'611.1
2018-Jun-13 19:30N 43°52' E 038°19'510.8
2018-Jun-13 19:01N 43°54' E 038°26'510.6
2018-Jun-13 18:31N 43°56' E 038°33'510.5
2018-Jun-13 18:01N 43°57' E 038°40'510.6
2018-Jun-13 17:31N 43°59' E 038°47'510.8
2018-Jun-13 17:00N 44°01' E 038°54'510.9
2018-Jun-13 16:31N 44°02' E 039°02'3 7.0
2018-Jun-13 16:01N 44°02' E 039°07'0 0.3
2018-Jun-13 15:30N 44°02' E 039°07'0 0.0
2018-Jun-13 15:00N 44°02' E 039°07'0 0.0
2018-Jun-13 14:30N 44°02' E 039°07'0 0.1
2018-Jun-13 14:00N 44°02' E 039°07'0 0.1
2018-Jun-13 13:30N 44°02' E 039°07'0 0.1
2018-Jun-13 13:00N 44°02' E 039°07'0 0.1
2018-Jun-13 12:30N 44°02' E 039°07'0 0.0
2018-Jun-13 12:00N 44°02' E 039°07'0 0.0
2018-Jun-13 11:30N 44°02' E 039°07'0 0.1
2018-Jun-13 11:00N 44°02' E 039°07'0 0.0
2018-Jun-13 10:30N 44°02' E 039°07'0 0.0
2018-Jun-13 10:00N 44°02' E 039°07'0 0.0
2018-Jun-13 09:30N 44°02' E 039°07'0 0.0
2018-Jun-13 09:00N 44°02' E 039°07'0 0.0
2018-Jun-13 08:30N 44°02' E 039°07'0 0.0
2018-Jun-13 08:00N 44°02' E 039°07'0 0.0
2018-Jun-13 07:27N 44°02' E 039°07'0 0.0
2018-Jun-13 07:00N 44°02' E 039°07'0 0.0
2018-Jun-13 06:30N 44°02' E 039°07'0 0.0
2018-Jun-13 06:00N 44°02' E 039°07'0 0.0
2018-Jun-13 05:30N 44°02' E 039°07'0 0.0
2018-Jun-13 05:00N 44°02' E 039°07'0 0.0
2018-Jun-13 04:30N 44°02' E 039°07'0 0.0
2018-Jun-13 04:00N 44°02' E 039°07'0 0.0
2018-Jun-13 03:30N 44°02' E 039°07'0 0.0
2018-Jun-13 03:00N 44°02' E 039°07'0 0.0
2018-Jun-13 02:30N 44°02' E 039°07'0 0.0
2018-Jun-13 02:00N 44°02' E 039°07'0 0.0
2018-Jun-13 01:30N 44°02' E 039°07'0 0.0
2018-Jun-13 01:00N 44°02' E 039°07'0 0.0
2018-Jun-13 00:30N 44°02' E 039°07'0 0.0
2018-Jun-12 23:57N 44°02' E 039°07'0 0.0
2018-Jun-12 23:30N 44°02' E 039°07'0 0.0
2018-Jun-12 23:00N 44°02' E 039°07'0 0.0
2018-Jun-12 22:30N 44°02' E 039°07'0 0.0
2018-Jun-12 22:00N 44°02' E 039°07'0 0.0
2018-Jun-12 21:30N 44°02' E 039°07'0 0.0
2018-Jun-12 21:00N 44°02' E 039°07'0 0.0
2018-Jun-12 20:30N 44°02' E 039°07'0 0.0
2018-Jun-12 20:00N 44°02' E 039°07'0 0.0
2018-Jun-12 19:30N 44°02' E 039°07'0 0.0
2018-Jun-12 19:00N 44°02' E 039°07'0 0.0
2018-Jun-12 18:30N 44°02' E 039°07'0 0.0
2018-Jun-12 18:00N 44°02' E 039°07'0 0.0
2018-Jun-12 17:30N 44°02' E 039°07'0 0.0
2018-Jun-12 17:00N 44°02' E 039°07'0 0.0
2018-Jun-12 16:30N 44°02' E 039°07'0 0.0
2018-Jun-12 16:00N 44°02' E 039°07'0 0.0
2018-Jun-12 15:30N 44°02' E 039°07'0 0.0
2018-Jun-12 15:00N 44°02' E 039°07'0 0.0
2018-Jun-12 14:30N 44°02' E 039°07'0 0.0
2018-Jun-12 14:00N 44°02' E 039°07'0 0.0
2018-Jun-12 13:30N 44°02' E 039°07'0 0.0
2018-Jun-12 13:00N 44°02' E 039°07'0 0.0
2018-Jun-12 12:30N 44°02' E 039°07'0 0.0
2018-Jun-12 12:00N 44°02' E 039°07'0 0.0
2018-Jun-12 11:30N 44°02' E 039°07'0 0.0
2018-Jun-12 11:00N 44°02' E 039°07'0 0.0
2018-Jun-12 10:30N 44°02' E 039°07'0 0.0
2018-Jun-12 10:00N 44°02' E 039°07'0 0.0
2018-Jun-12 09:30N 44°02' E 039°07'0 0.0
2018-Jun-12 09:00N 44°02' E 039°07'0 0.0
2018-Jun-12 08:30N 44°02' E 039°07'0 0.0
2018-Jun-12 08:00N 44°02' E 039°07'0 0.0
2018-Jun-12 07:30N 44°02' E 039°07'0 0.0
2018-Jun-12 07:00N 44°02' E 039°07'0 0.0
2018-Jun-12 06:30N 44°02' E 039°07'0 0.0
2018-Jun-12 06:00N 44°02' E 039°07'0 0.0
2018-Jun-12 05:30N 44°02' E 039°07'0 0.0
2018-Jun-12 05:00N 44°02' E 039°07'0 0.0
2018-Jun-12 04:30N 44°02' E 039°07'0 0.0
2018-Jun-12 04:00N 44°02' E 039°07'0 0.0
2018-Jun-12 03:30N 44°02' E 039°07'0 0.0
2018-Jun-12 03:00N 44°02' E 039°07'0 0.0
2018-Jun-12 02:30N 44°02' E 039°07'0 0.2
2018-Jun-12 02:00N 44°02' E 039°07'3 5.4
2018-Jun-12 01:30N 44°04' E 039°04'2 3.3
2018-Jun-12 01:00N 44°05' E 039°04'0 0.4
2018-Jun-12 00:30N 44°06' E 039°04'0 0.0
2018-Jun-11 23:58N 44°06' E 039°04'0 0.0
2018-Jun-11 23:28N 44°06' E 039°04'0 0.0
2018-Jun-11 22:58N 44°06' E 039°04'0 0.0
2018-Jun-11 22:28N 44°05' E 039°04'0 0.0
2018-Jun-11 21:58N 44°05' E 039°04'0 0.0
2018-Jun-11 21:28N 44°05' E 039°04'0 0.0
2018-Jun-11 20:58N 44°05' E 039°04'0 0.0
2018-Jun-11 20:28N 44°06' E 039°04'0 0.0
2018-Jun-11 19:58N 44°05' E 039°04'0 0.0
2018-Jun-11 19:28N 44°05' E 039°04'0 0.0
2018-Jun-11 18:58N 44°05' E 039°04'0 0.0
2018-Jun-11 18:28N 44°05' E 039°04'0 0.0
2018-Jun-11 17:58N 44°06' E 039°04'0 0.0
2018-Jun-11 17:28N 44°05' E 039°04'0 0.0
2018-Jun-11 16:58N 44°05' E 039°04'0 0.0
2018-Jun-11 16:28N 44°05' E 039°04'0 0.0
2018-Jun-11 15:58N 44°05' E 039°04'0 0.0
2018-Jun-11 15:28N 44°05' E 039°04'0 0.0
2018-Jun-11 14:58N 44°05' E 039°04'0 0.0
2018-Jun-11 14:28N 44°06' E 039°04'0 0.0
2018-Jun-11 13:58N 44°05' E 039°04'0 0.0
2018-Jun-11 13:28N 44°06' E 039°04'0 0.0
2018-Jun-11 12:58N 44°05' E 039°04'0 0.0
2018-Jun-11 12:28N 44°05' E 039°04'0 0.0
2018-Jun-11 11:58N 44°05' E 039°04'0 0.0
2018-Jun-11 11:28N 44°05' E 039°04'0 0.0
2018-Jun-11 10:58N 44°05' E 039°04'0 0.0
2018-Jun-11 10:28N 44°05' E 039°04'0 0.0
2018-Jun-11 09:58N 44°05' E 039°04'0 0.0
2018-Jun-11 09:28N 44°05' E 039°04'0 0.0
2018-Jun-11 08:58N 44°06' E 039°04'0 0.0
2018-Jun-11 08:28N 44°06' E 039°04'0 0.0
2018-Jun-11 07:58N 44°06' E 039°04'0 0.0
2018-Jun-11 07:28N 44°05' E 039°04'0 0.0
2018-Jun-11 06:58N 44°05' E 039°04'0 0.0
2018-Jun-11 06:28N 44°05' E 039°04'0 0.0
2018-Jun-11 05:58N 44°05' E 039°04'0 0.0
2018-Jun-11 05:28N 44°05' E 039°04'0 0.0
2018-Jun-11 04:58N 44°05' E 039°04'0 0.0
2018-Jun-11 04:28N 44°05' E 039°04'0 0.0
2018-Jun-11 03:58N 44°06' E 039°04'0 0.0
2018-Jun-11 03:28N 44°05' E 039°04'0 0.0
2018-Jun-11 02:58N 44°05' E 039°04'0 0.0
2018-Jun-11 02:28N 44°05' E 039°04'0 0.0
2018-Jun-11 01:58N 44°05' E 039°04'0 0.0
2018-Jun-11 01:28N 44°05' E 039°04'0 0.0
2018-Jun-11 00:58N 44°05' E 039°04'0 0.0
2018-Jun-11 00:28N 44°05' E 039°04'0 0.0
2018-Jun-10 23:58N 44°06' E 039°04'0 0.0
2018-Jun-10 23:28N 44°06' E 039°04'0 0.0
2018-Jun-10 22:58N 44°06' E 039°04'0 0.0
2018-Jun-10 22:28N 44°05' E 039°04'0 0.0
2018-Jun-10 21:58N 44°05' E 039°04'0 0.0
2018-Jun-10 21:28N 44°05' E 039°04'0 0.0
2018-Jun-10 20:58N 44°06' E 039°04'0 0.0
2018-Jun-10 20:28N 44°05' E 039°04'0 0.0
2018-Jun-10 19:58N 44°05' E 039°04'0 0.0
2018-Jun-10 19:28N 44°05' E 039°04'0 0.0
2018-Jun-10 18:58N 44°06' E 039°04'0 0.0
2018-Jun-10 18:28N 44°06' E 039°04'0 0.0
2018-Jun-10 17:58N 44°06' E 039°04'0 0.0
2018-Jun-10 17:28N 44°05' E 039°04'0 0.0
2018-Jun-10 16:58N 44°05' E 039°04'0 0.0
2018-Jun-10 16:28N 44°05' E 039°04'0 0.0
2018-Jun-10 15:58N 44°06' E 039°04'0 0.0
2018-Jun-10 15:28N 44°05' E 039°04'0 0.0
2018-Jun-10 14:58N 44°05' E 039°04'0 0.0
2018-Jun-10 13:58N 44°06' E 039°04'0 0.0
2018-Jun-10 13:28N 44°06' E 039°04'0 0.0
2018-Jun-10 12:58N 44°05' E 039°04'0 0.0
2018-Jun-10 12:28N 44°05' E 039°04'0 0.0
2018-Jun-10 11:58N 44°05' E 039°04'0 0.0
2018-Jun-10 11:28N 44°06' E 039°04'0 0.0
2018-Jun-10 10:58N 44°06' E 039°04'0 0.0
2018-Jun-10 10:28N 44°05' E 039°04'0 0.0
2018-Jun-10 09:58N 44°05' E 039°04'0 0.0
2018-Jun-10 09:28N 44°05' E 039°04'0 0.0
2018-Jun-10 08:58N 44°06' E 039°04'0 0.0
2018-Jun-10 08:28N 44°05' E 039°04'0 0.0
2018-Jun-10 07:58N 44°06' E 039°04'0 0.0
2018-Jun-10 07:28N 44°06' E 039°04'0 0.0
2018-Jun-10 06:58N 44°06' E 039°04'0 0.0
2018-Jun-10 06:28N 44°05' E 039°04'0 0.0
2018-Jun-10 05:58N 44°06' E 039°04'0 0.0
2018-Jun-10 05:28N 44°06' E 039°04'0 0.0
2018-Jun-10 04:58N 44°05' E 039°04'0 0.0
2018-Jun-10 04:28N 44°06' E 039°04'0 0.0
2018-Jun-10 03:58N 44°06' E 039°04'0 0.0
2018-Jun-10 03:28N 44°06' E 039°04'0 0.0
2018-Jun-10 02:58N 44°06' E 039°04'0 0.0
2018-Jun-10 02:28N 44°06' E 039°04'0 0.0
2018-Jun-10 01:58N 44°06' E 039°04'0 0.0
2018-Jun-10 01:28N 44°06' E 039°04'0 0.0
2018-Jun-10 00:58N 44°06' E 039°04'0 0.0
2018-Jun-10 00:28N 44°05' E 039°04'0 0.0
2018-Jun-09 23:58N 44°06' E 039°04'0 0.0
2018-Jun-09 23:28N 44°05' E 039°04'0 0.0
2018-Jun-09 22:58N 44°06' E 039°04'0 0.0
2018-Jun-09 22:28N 44°06' E 039°04'0 0.0
2018-Jun-09 21:58N 44°05' E 039°04'0 0.0
2018-Jun-09 21:28N 44°06' E 039°04'0 0.0
2018-Jun-09 20:58N 44°06' E 039°04'0 0.0
2018-Jun-09 20:28N 44°05' E 039°04'0 0.0
2018-Jun-09 19:58N 44°06' E 039°04'0 0.0
2018-Jun-09 19:28N 44°05' E 039°04'0 0.0
2018-Jun-09 18:58N 44°05' E 039°04'0 0.0
2018-Jun-09 18:28N 44°06' E 039°04'0 0.0
2018-Jun-09 17:58N 44°05' E 039°04'0 0.0
2018-Jun-09 17:28N 44°05' E 039°04'0 0.0
2018-Jun-09 16:58N 44°05' E 039°04'0 0.0
2018-Jun-09 16:28N 44°06' E 039°04'0 0.0
2018-Jun-09 15:58N 44°05' E 039°04'0 0.0
2018-Jun-09 14:58N 44°06' E 039°04'0 0.0
2018-Jun-09 14:28N 44°06' E 039°04'0 0.0
2018-Jun-09 13:58N 44°06' E 039°04'0 0.0
2018-Jun-09 13:28N 44°06' E 039°04'0 0.0
2018-Jun-09 12:58N 44°05' E 039°04'0 0.0
2018-Jun-09 12:28N 44°05' E 039°04'0 0.0
2018-Jun-09 11:58N 44°05' E 039°04'0 0.0
2018-Jun-09 11:28N 44°06' E 039°04'0 0.0
2018-Jun-09 10:58N 44°05' E 039°04'0 0.0
2018-Jun-09 10:28N 44°06' E 039°04'0 0.0
2018-Jun-09 09:58N 44°05' E 039°04'0 0.0
2018-Jun-09 09:28N 44°06' E 039°04'0 0.0
2018-Jun-09 08:58N 44°06' E 039°04'0 0.0
2018-Jun-09 08:28N 44°06' E 039°04'0 0.0
2018-Jun-09 07:58N 44°06' E 039°04'0 0.0
2018-Jun-09 07:28N 44°05' E 039°04'0 0.0
2018-Jun-09 06:58N 44°06' E 039°04'0 0.0
2018-Jun-09 06:28N 44°05' E 039°04'0 0.0
2018-Jun-09 05:58N 44°06' E 039°04'0 0.0
2018-Jun-09 05:28N 44°05' E 039°04'0 0.0
2018-Jun-09 04:58N 44°06' E 039°04'0 0.0
2018-Jun-09 04:28N 44°06' E 039°04'0 0.0
2018-Jun-09 03:58N 44°05' E 039°04'0 0.0
2018-Jun-09 03:28N 44°06' E 039°04'0 0.0
2018-Jun-09 02:58N 44°05' E 039°04'0 0.0
2018-Jun-09 02:28N 44°05' E 039°04'0 0.0
2018-Jun-09 01:58N 44°06' E 039°04'0 0.0
2018-Jun-09 01:29N 44°05' E 039°04'0 0.4
2018-Jun-09 01:00N 44°05' E 039°04'2 3.5
2018-Jun-09 00:30N 44°04' E 039°04'1 2.0
2018-Jun-08 23:59N 44°03' E 039°04'0 0.2
2018-Jun-08 23:30N 44°03' E 039°04'0 0.1
2018-Jun-08 23:00N 44°03' E 039°04'0 0.0
2018-Jun-08 22:30N 44°03' E 039°04'0 0.1
2018-Jun-08 22:00N 44°03' E 039°04'0 0.0
2018-Jun-08 21:30N 44°03' E 039°04'0 0.1
2018-Jun-08 20:54N 44°03' E 039°04'0 0.2
2018-Jun-08 20:30N 44°03' E 039°04'0 0.1
2018-Jun-08 20:00N 44°03' E 039°04'0 0.0
2018-Jun-08 19:30N 44°03' E 039°04'0 0.0
2018-Jun-08 19:00N 44°03' E 039°04'0 0.0
2018-Jun-08 18:30N 44°03' E 039°04'0 0.1
2018-Jun-08 18:00N 44°03' E 039°04'0 0.0
2018-Jun-08 17:30N 44°03' E 039°04'0 0.0
2018-Jun-08 17:00N 44°03' E 039°05'0 0.0
2018-Jun-08 16:30N 44°03' E 039°05'0 0.0
2018-Jun-08 16:00N 44°03' E 039°05'0 0.0
2018-Jun-08 15:30N 44°03' E 039°05'0 0.0
2018-Jun-08 15:00N 44°03' E 039°05'0 0.0
2018-Jun-08 14:30N 44°03' E 039°05'0 0.1
2018-Jun-08 14:00N 44°03' E 039°05'0 0.0
2018-Jun-08 13:30N 44°03' E 039°05'0 0.0
2018-Jun-08 13:00N 44°03' E 039°05'0 0.1
2018-Jun-08 12:30N 44°03' E 039°05'0 0.1
2018-Jun-08 12:00N 44°03' E 039°05'0 0.0
2018-Jun-08 11:30N 44°03' E 039°05'0 0.0
2018-Jun-08 11:00N 44°03' E 039°05'0 0.0
2018-Jun-08 10:30N 44°03' E 039°04'0 0.0
2018-Jun-08 10:00N 44°03' E 039°04'0 0.0
2018-Jun-08 09:30N 44°03' E 039°04'0 0.0
2018-Jun-08 09:00N 44°03' E 039°04'0 0.0
2018-Jun-08 08:30N 44°03' E 039°04'0 0.1
2018-Jun-08 08:00N 44°03' E 039°04'0 0.0
2018-Jun-08 07:30N 44°03' E 039°04'0 0.0
2018-Jun-08 07:00N 44°03' E 039°05'0 0.0
2018-Jun-08 06:30N 44°03' E 039°04'0 0.1
2018-Jun-08 06:00N 44°03' E 039°05'0 0.2
2018-Jun-08 05:30N 44°03' E 039°05'0 0.1
2018-Jun-08 05:00N 44°03' E 039°04'0 0.0
2018-Jun-08 04:30N 44°03' E 039°04'0 0.0
2018-Jun-08 04:00N 44°03' E 039°04'0 0.0
2018-Jun-08 03:30N 44°03' E 039°04'0 0.0
2018-Jun-08 03:00N 44°03' E 039°04'0 0.1
2018-Jun-08 02:30N 44°03' E 039°05'0 0.0
2018-Jun-08 02:00N 44°03' E 039°05'0 0.0
2018-Jun-08 01:27N 44°03' E 039°05'0 0.0
2018-Jun-08 01:00N 44°03' E 039°05'0 0.0
2018-Jun-08 00:30N 44°03' E 039°05'0 0.0
2018-Jun-08 00:00N 44°03' E 039°05'0 0.0
2018-Jun-07 23:30N 44°03' E 039°04'0 0.0
2018-Jun-07 23:00N 44°03' E 039°04'0 0.0
2018-Jun-07 22:30N 44°03' E 039°04'0 0.0
2018-Jun-07 22:00N 44°03' E 039°04'0 0.0
2018-Jun-07 21:30N 44°03' E 039°04'0 0.0
2018-Jun-07 21:00N 44°03' E 039°04'0 0.0
2018-Jun-07 20:30N 44°03' E 039°04'0 0.0
2018-Jun-07 20:00N 44°03' E 039°04'0 0.0
2018-Jun-07 19:30N 44°03' E 039°04'0 0.0
2018-Jun-07 19:00N 44°03' E 039°04'0 0.0
2018-Jun-07 18:30N 44°03' E 039°05'0 0.0
2018-Jun-07 18:00N 44°03' E 039°05'0 0.0
2018-Jun-07 17:30N 44°03' E 039°05'0 0.0
2018-Jun-07 17:00N 44°03' E 039°05'0 0.0
2018-Jun-07 16:30N 44°03' E 039°05'0 0.0
2018-Jun-07 16:00N 44°03' E 039°05'0 0.0
2018-Jun-07 15:30N 44°03' E 039°05'0 0.0
2018-Jun-07 15:00N 44°03' E 039°05'0 0.0
2018-Jun-07 14:30N 44°03' E 039°04'0 0.0
2018-Jun-07 14:00N 44°03' E 039°05'0 0.1
2018-Jun-07 13:30N 44°03' E 039°05'0 0.0
2018-Jun-07 13:00N 44°03' E 039°05'0 0.0
2018-Jun-07 12:30N 44°03' E 039°05'0 0.1
2018-Jun-07 12:00N 44°03' E 039°05'0 0.0
2018-Jun-07 11:30N 44°03' E 039°05'0 0.0
2018-Jun-07 11:00N 44°03' E 039°05'0 0.0
2018-Jun-07 10:30N 44°03' E 039°05'0 0.0
2018-Jun-07 10:00N 44°03' E 039°05'0 0.1
2018-Jun-07 09:30N 44°03' E 039°05'0 0.1
2018-Jun-07 09:00N 44°03' E 039°05'0 0.0
2018-Jun-07 08:30N 44°03' E 039°04'0 0.0
2018-Jun-07 08:00N 44°03' E 039°04'0 0.0
2018-Jun-07 07:30N 44°03' E 039°04'0 0.0
2018-Jun-07 07:00N 44°03' E 039°04'0 0.0
2018-Jun-07 06:30N 44°03' E 039°04'0 0.0
2018-Jun-07 06:00N 44°03' E 039°04'0 0.0
2018-Jun-07 05:27N 44°03' E 039°04'0 0.0
2018-Jun-07 05:00N 44°03' E 039°04'0 0.0
2018-Jun-07 04:30N 44°03' E 039°04'0 0.0
2018-Jun-07 04:00N 44°03' E 039°04'0 0.0
2018-Jun-07 03:30N 44°03' E 039°04'0 0.1
2018-Jun-07 03:00N 44°03' E 039°04'0 0.0
2018-Jun-07 02:30N 44°03' E 039°04'0 0.0
2018-Jun-07 02:00N 44°03' E 039°04'0 0.0
2018-Jun-07 01:30N 44°03' E 039°04'0 0.1
2018-Jun-07 01:00N 44°03' E 039°04'0 0.1
2018-Jun-07 00:30N 44°03' E 039°04'0 0.0
2018-Jun-07 00:00N 44°03' E 039°04'0 0.1
2018-Jun-06 23:30N 44°03' E 039°04'0 0.0
2018-Jun-06 23:00N 44°03' E 039°04'0 0.1
2018-Jun-06 22:30N 44°03' E 039°04'0 0.1
2018-Jun-06 22:00N 44°03' E 039°04'0 0.1
2018-Jun-06 21:30N 44°03' E 039°04'0 0.0
2018-Jun-06 21:00N 44°03' E 039°04'0 0.0
2018-Jun-06 20:30N 44°03' E 039°04'0 0.0
2018-Jun-06 20:00N 44°03' E 039°04'0 0.0
2018-Jun-06 19:30N 44°03' E 039°04'0 0.1
2018-Jun-06 19:00N 44°03' E 039°04'0 0.0
2018-Jun-06 18:30N 44°03' E 039°04'0 0.0
2018-Jun-06 18:00N 44°03' E 039°04'0 0.0
2018-Jun-06 17:30N 44°03' E 039°04'0 0.0
2018-Jun-06 17:00N 44°03' E 039°04'0 0.0
2018-Jun-06 16:30N 44°03' E 039°04'0 0.0
2018-Jun-06 16:00N 44°03' E 039°04'0 0.0
2018-Jun-06 15:30N 44°03' E 039°04'0 0.0
2018-Jun-06 15:00N 44°03' E 039°04'0 0.0
2018-Jun-06 14:30N 44°03' E 039°04'0 0.0
2018-Jun-06 14:00N 44°03' E 039°04'0 0.0
2018-Jun-06 13:30N 44°03' E 039°04'0 0.0
2018-Jun-06 13:00N 44°03' E 039°04'0 0.1
2018-Jun-06 12:30N 44°03' E 039°04'0 0.0
2018-Jun-06 12:00N 44°03' E 039°04'0 0.0
2018-Jun-06 11:30N 44°03' E 039°04'0 0.0
2018-Jun-06 11:00N 44°03' E 039°04'0 0.0
2018-Jun-06 10:30N 44°03' E 039°04'0 0.0
2018-Jun-06 10:00N 44°03' E 039°04'0 0.0
2018-Jun-06 09:30N 44°03' E 039°04'0 0.0
2018-Jun-06 08:54N 44°03' E 039°04'0 0.1
2018-Jun-06 08:30N 44°03' E 039°04'0 0.0
2018-Jun-06 08:00N 44°03' E 039°04'0 0.0
2018-Jun-06 07:30N 44°03' E 039°04'0 0.0
2018-Jun-06 07:00N 44°03' E 039°04'0 0.0
2018-Jun-06 06:30N 44°03' E 039°04'0 0.0
2018-Jun-06 06:00N 44°03' E 039°04'0 0.0
2018-Jun-06 05:30N 44°03' E 039°04'0 0.0
2018-Jun-06 05:00N 44°03' E 039°04'0 0.0
2018-Jun-06 04:30N 44°03' E 039°04'0 0.0
2018-Jun-06 04:00N 44°03' E 039°04'0 0.0
2018-Jun-06 03:30N 44°03' E 039°04'0 0.0
2018-Jun-06 03:00N 44°03' E 039°04'0 0.0
2018-Jun-06 02:30N 44°03' E 039°04'0 0.0
2018-Jun-06 02:00N 44°03' E 039°04'0 0.0
2018-Jun-06 01:30N 44°03' E 039°04'0 0.0
2018-Jun-06 01:00N 44°03' E 039°04'0 0.0
2018-Jun-06 00:30N 44°03' E 039°04'0 0.0
2018-Jun-06 00:00N 44°03' E 039°04'0 0.0
2018-Jun-05 23:30N 44°03' E 039°04'0 0.0
2018-Jun-05 23:00N 44°03' E 039°04'  
Track history (hours):
 
Tides and Currents Weather Stations Pressure Air Temp Water Temp Dewpoint Dewpoint Depression Visibility Wind Speed Wind Dir Waves Ship Positions

Thor Fearless

Last reported at 2018-Jun-15 22:55 UTC. Time now 2018-Jul-18 23:59 UTC.
Position N 41°12' E 029°06'.
Warning: this ship's position is 33 days out of date.

Length 190 m; draft 12.2 m.

Type: Cargo ship. MMSI: 566969000.

Date/timePositionNaut miles runAvg speedWind from/ knotsBaromVisibWave heightAir tempDewpointWater temp
2018-Jun-15 22:55N 41°12' E 029°06'3 6.8
2018-Jun-15 22:30N 41°15' E 029°08'4 7.7
2018-Jun-15 22:00N 41°19' E 029°08'4 8.0
2018-Jun-15 21:30N 41°23' E 029°08'0 0.6
2018-Jun-15 21:00N 41°23' E 029°07'0 0.2
2018-Jun-15 20:30N 41°23' E 029°07'0 0.1
2018-Jun-15 19:59N 41°23' E 029°08'0 0.2
2018-Jun-15 19:30N 41°23' E 029°08'0 0.2
2018-Jun-15 19:00N 41°23' E 029°08'0 0.2
2018-Jun-15 18:30N 41°23' E 029°08'0 0.1
2018-Jun-15 18:00N 41°23' E 029°08'0 0.3
2018-Jun-15 17:30N 41°23' E 029°08'0 0.4
2018-Jun-15 17:00N 41°23' E 029°08'0 0.4
2018-Jun-15 16:30N 41°23' E 029°09'0 0.5
2018-Jun-15 16:00N 41°23' E 029°09'0 0.5
2018-Jun-15 15:28N 41°23' E 029°09'0 0.5
2018-Jun-15 15:00N 41°24' E 029°09'0 0.5
2018-Jun-15 14:30N 41°24' E 029°10'0 0.4
2018-Jun-15 14:00N 41°24' E 029°10'0 0.3
2018-Jun-15 13:30N 41°24' E 029°10'0 0.3
2018-Jun-15 12:29N 41°24' E 029°10'0 0.4
2018-Jun-15 12:00N 41°24' E 029°10'0 0.4
2018-Jun-15 11:30N 41°25' E 029°10'0 0.3
2018-Jun-15 11:00N 41°25' E 029°10'2 2.3
2018-Jun-15 10:12N 41°24' E 029°13'2 8.6
2018-Jun-15 09:57N 41°25' E 029°16'5010.4
2018-Jun-15 05:07N 41°42' E 030°18'310.8
2018-Jun-15 04:50N 41°43' E 030°22'510.8
2018-Jun-15 04:23N 41°45' E 030°28'1111.0
2018-Jun-15 03:25N 41°49' E 030°41'511.0
2018-Jun-15 02:59N 41°50' E 030°47'610.9
2018-Jun-15 02:25N 41°52' E 030°55'610.9
2018-Jun-15 01:55N 41°54' E 031°02'2611.2
2018-Jun-14 23:33N 42°03' E 031°35'411.0
2018-Jun-14 23:13N 42°05' E 031°40'211.1
2018-Jun-14 23:00N 42°06' E 031°43'611.2
2018-Jun-14 22:28N 42°08' E 031°51'14911.2
2018-Jun-14 09:11N 42°59' E 035°00'11811.2
2018-Jun-13 22:38N 43°40' E 037°33'111.6
2018-Jun-13 22:30N 43°40' E 037°35'711.5
2018-Jun-13 21:52N 43°43' E 037°44'411.7
2018-Jun-13 21:30N 43°44' E 037°50'611.8
2018-Jun-13 21:00N 43°46' E 037°58'611.5
2018-Jun-13 20:30N 43°48' E 038°05'611.2
2018-Jun-13 20:00N 43°50' E 038°12'611.1
2018-Jun-13 19:30N 43°52' E 038°19'510.8
2018-Jun-13 19:01N 43°54' E 038°26'510.6
2018-Jun-13 18:31N 43°56' E 038°33'510.5
2018-Jun-13 18:01N 43°57' E 038°40'510.6
2018-Jun-13 17:31N 43°59' E 038°47'510.8
2018-Jun-13 17:00N 44°01' E 038°54'510.9
2018-Jun-13 16:31N 44°02' E 039°02'3 7.0
2018-Jun-13 16:01N 44°02' E 039°07'0 0.3
2018-Jun-13 15:30N 44°02' E 039°07'0 0.0
2018-Jun-13 15:00N 44°02' E 039°07'0 0.0
2018-Jun-13 14:30N 44°02' E 039°07'0 0.1
2018-Jun-13 14:00N 44°02' E 039°07'0 0.1
2018-Jun-13 13:30N 44°02' E 039°07'0 0.1
2018-Jun-13 13:00N 44°02' E 039°07'0 0.1
2018-Jun-13 12:30N 44°02' E 039°07'0 0.0
2018-Jun-13 12:00N 44°02' E 039°07'0 0.0
2018-Jun-13 11:30N 44°02' E 039°07'0 0.1
2018-Jun-13 11:00N 44°02' E 039°07'0 0.0
2018-Jun-13 10:30N 44°02' E 039°07'0 0.0
2018-Jun-13 10:00N 44°02' E 039°07'0 0.0
2018-Jun-13 09:30N 44°02' E 039°07'0 0.0
2018-Jun-13 09:00N 44°02' E 039°07'0 0.0
2018-Jun-13 08:30N 44°02' E 039°07'0 0.0
2018-Jun-13 08:00N 44°02' E 039°07'0 0.0
2018-Jun-13 07:27N 44°02' E 039°07'0 0.0
2018-Jun-13 07:00N 44°02' E 039°07'0 0.0
2018-Jun-13 06:30N 44°02' E 039°07'0 0.0
2018-Jun-13 06:00N 44°02' E 039°07'0 0.0
2018-Jun-13 05:30N 44°02' E 039°07'0 0.0
2018-Jun-13 05:00N 44°02' E 039°07'0 0.0
2018-Jun-13 04:30N 44°02' E 039°07'0 0.0
2018-Jun-13 04:00N 44°02' E 039°07'0 0.0
2018-Jun-13 03:30N 44°02' E 039°07'0 0.0
2018-Jun-13 03:00N 44°02' E 039°07'0 0.0
2018-Jun-13 02:30N 44°02' E 039°07'0 0.0
2018-Jun-13 02:00N 44°02' E 039°07'0 0.0
2018-Jun-13 01:30N 44°02' E 039°07'0 0.0
2018-Jun-13 01:00N 44°02' E 039°07'0 0.0
2018-Jun-13 00:30N 44°02' E 039°07'0 0.0
2018-Jun-12 23:57N 44°02' E 039°07'0 0.0
2018-Jun-12 23:30N 44°02' E 039°07'0 0.0
2018-Jun-12 23:00N 44°02' E 039°07'0 0.0
2018-Jun-12 22:30N 44°02' E 039°07'0 0.0
2018-Jun-12 22:00N 44°02' E 039°07'0 0.0
2018-Jun-12 21:30N 44°02' E 039°07'0 0.0
2018-Jun-12 21:00N 44°02' E 039°07'0 0.0
2018-Jun-12 20:30N 44°02' E 039°07'0 0.0
2018-Jun-12 20:00N 44°02' E 039°07'0 0.0
2018-Jun-12 19:30N 44°02' E 039°07'0 0.0
2018-Jun-12 19:00N 44°02' E 039°07'0 0.0
2018-Jun-12 18:30N 44°02' E 039°07'0 0.0
2018-Jun-12 18:00N 44°02' E 039°07'0 0.0
2018-Jun-12 17:30N 44°02' E 039°07'0 0.0
2018-Jun-12 17:00N 44°02' E 039°07'0 0.0
2018-Jun-12 16:30N 44°02' E 039°07'0 0.0
2018-Jun-12 16:00N 44°02' E 039°07'0 0.0
2018-Jun-12 15:30N 44°02' E 039°07'0 0.0
2018-Jun-12 15:00N 44°02' E 039°07'0 0.0
2018-Jun-12 14:30N 44°02' E 039°07'0 0.0
2018-Jun-12 14:00N 44°02' E 039°07'0 0.0
2018-Jun-12 13:30N 44°02' E 039°07'0 0.0
2018-Jun-12 13:00N 44°02' E 039°07'0 0.0
2018-Jun-12 12:30N 44°02' E 039°07'0 0.0
2018-Jun-12 12:00N 44°02' E 039°07'0 0.0
2018-Jun-12 11:30N 44°02' E 039°07'0 0.0
2018-Jun-12 11:00N 44°02' E 039°07'0 0.0
2018-Jun-12 10:30N 44°02' E 039°07'0 0.0
2018-Jun-12 10:00N 44°02' E 039°07'0 0.0
2018-Jun-12 09:30N 44°02' E 039°07'0 0.0
2018-Jun-12 09:00N 44°02' E 039°07'0 0.0
2018-Jun-12 08:30N 44°02' E 039°07'0 0.0
2018-Jun-12 08:00N 44°02' E 039°07'0 0.0
2018-Jun-12 07:30N 44°02' E 039°07'0 0.0
2018-Jun-12 07:00N 44°02' E 039°07'0 0.0
2018-Jun-12 06:30N 44°02' E 039°07'0 0.0
2018-Jun-12 06:00N 44°02' E 039°07'0 0.0
2018-Jun-12 05:30N 44°02' E 039°07'0 0.0
2018-Jun-12 05:00N 44°02' E 039°07'0 0.0
2018-Jun-12 04:30N 44°02' E 039°07'0 0.0
2018-Jun-12 04:00N 44°02' E 039°07'0 0.0
2018-Jun-12 03:30N 44°02' E 039°07'0 0.0
2018-Jun-12 03:00N 44°02' E 039°07'0 0.0
2018-Jun-12 02:30N 44°02' E 039°07'0 0.2
2018-Jun-12 02:00N 44°02' E 039°07'3 5.4
2018-Jun-12 01:30N 44°04' E 039°04'2 3.3
2018-Jun-12 01:00N 44°05' E 039°04'0 0.4
2018-Jun-12 00:30N 44°06' E 039°04'0 0.0
2018-Jun-11 23:58N 44°06' E 039°04'0 0.0
2018-Jun-11 23:28N 44°06' E 039°04'0 0.0
2018-Jun-11 22:58N 44°06' E 039°04'0 0.0
2018-Jun-11 22:28N 44°05' E 039°04'0 0.0
2018-Jun-11 21:58N 44°05' E 039°04'0 0.0
2018-Jun-11 21:28N 44°05' E 039°04'0 0.0
2018-Jun-11 20:58N 44°05' E 039°04'0 0.0
2018-Jun-11 20:28N 44°06' E 039°04'0 0.0
2018-Jun-11 19:58N 44°05' E 039°04'0 0.0
2018-Jun-11 19:28N 44°05' E 039°04'0 0.0
2018-Jun-11 18:58N 44°05' E 039°04'0 0.0
2018-Jun-11 18:28N 44°05' E 039°04'0 0.0
2018-Jun-11 17:58N 44°06' E 039°04'0 0.0
2018-Jun-11 17:28N 44°05' E 039°04'0 0.0
2018-Jun-11 16:58N 44°05' E 039°04'0 0.0
2018-Jun-11 16:28N 44°05' E 039°04'0 0.0
2018-Jun-11 15:58N 44°05' E 039°04'0 0.0
2018-Jun-11 15:28N 44°05' E 039°04'0 0.0
2018-Jun-11 14:58N 44°05' E 039°04'0 0.0
2018-Jun-11 14:28N 44°06' E 039°04'0 0.0
2018-Jun-11 13:58N 44°05' E 039°04'0 0.0
2018-Jun-11 13:28N 44°06' E 039°04'0 0.0
2018-Jun-11 12:58N 44°05' E 039°04'0 0.0
2018-Jun-11 12:28N 44°05' E 039°04'0 0.0
2018-Jun-11 11:58N 44°05' E 039°04'0 0.0
2018-Jun-11 11:28N 44°05' E 039°04'0 0.0
2018-Jun-11 10:58N 44°05' E 039°04'0 0.0
2018-Jun-11 10:28N 44°05' E 039°04'0 0.0
2018-Jun-11 09:58N 44°05' E 039°04'0 0.0
2018-Jun-11 09:28N 44°05' E 039°04'0 0.0
2018-Jun-11 08:58N 44°06' E 039°04'0 0.0
2018-Jun-11 08:28N 44°06' E 039°04'0 0.0
2018-Jun-11 07:58N 44°06' E 039°04'0 0.0
2018-Jun-11 07:28N 44°05' E 039°04'0 0.0
2018-Jun-11 06:58N 44°05' E 039°04'0 0.0
2018-Jun-11 06:28N 44°05' E 039°04'0 0.0
2018-Jun-11 05:58N 44°05' E 039°04'0 0.0
2018-Jun-11 05:28N 44°05' E 039°04'0 0.0
2018-Jun-11 04:58N 44°05' E 039°04'0 0.0
2018-Jun-11 04:28N 44°05' E 039°04'0 0.0
2018-Jun-11 03:58N 44°06' E 039°04'0 0.0
2018-Jun-11 03:28N 44°05' E 039°04'0 0.0
2018-Jun-11 02:58N 44°05' E 039°04'0 0.0
2018-Jun-11 02:28N 44°05' E 039°04'0 0.0
2018-Jun-11 01:58N 44°05' E 039°04'0 0.0
2018-Jun-11 01:28N 44°05' E 039°04'0 0.0
2018-Jun-11 00:58N 44°05' E 039°04'0 0.0
2018-Jun-11 00:28N 44°05' E 039°04'0 0.0
2018-Jun-10 23:58N 44°06' E 039°04'0 0.0
2018-Jun-10 23:28N 44°06' E 039°04'0 0.0
2018-Jun-10 22:58N 44°06' E 039°04'0 0.0
2018-Jun-10 22:28N 44°05' E 039°04'0 0.0
2018-Jun-10 21:58N 44°05' E 039°04'0 0.0
2018-Jun-10 21:28N 44°05' E 039°04'0 0.0
2018-Jun-10 20:58N 44°06' E 039°04'0 0.0
2018-Jun-10 20:28N 44°05' E 039°04'0 0.0
2018-Jun-10 19:58N 44°05' E 039°04'0 0.0
2018-Jun-10 19:28N 44°05' E 039°04'0 0.0
2018-Jun-10 18:58N 44°06' E 039°04'0 0.0
2018-Jun-10 18:28N 44°06' E 039°04'0 0.0
2018-Jun-10 17:58N 44°06' E 039°04'0 0.0
2018-Jun-10 17:28N 44°05' E 039°04'0 0.0
2018-Jun-10 16:58N 44°05' E 039°04'0 0.0
2018-Jun-10 16:28N 44°05' E 039°04'0 0.0
2018-Jun-10 15:58N 44°06' E 039°04'0 0.0
2018-Jun-10 15:28N 44°05' E 039°04'0 0.0
2018-Jun-10 14:58N 44°05' E 039°04'0 0.0
2018-Jun-10 13:58N 44°06' E 039°04'0 0.0
2018-Jun-10 13:28N 44°06' E 039°04'0 0.0
2018-Jun-10 12:58N 44°05' E 039°04'0 0.0
2018-Jun-10 12:28N 44°05' E 039°04'0 0.0
2018-Jun-10 11:58N 44°05' E 039°04'0 0.0
2018-Jun-10 11:28N 44°06' E 039°04'0 0.0
2018-Jun-10 10:58N 44°06' E 039°04'0 0.0
2018-Jun-10 10:28N 44°05' E 039°04'0 0.0
2018-Jun-10 09:58N 44°05' E 039°04'0 0.0
2018-Jun-10 09:28N 44°05' E 039°04'0 0.0
2018-Jun-10 08:58N 44°06' E 039°04'0 0.0
2018-Jun-10 08:28N 44°05' E 039°04'0 0.0
2018-Jun-10 07:58N 44°06' E 039°04'0 0.0
2018-Jun-10 07:28N 44°06' E 039°04'0 0.0
2018-Jun-10 06:58N 44°06' E 039°04'0 0.0
2018-Jun-10 06:28N 44°05' E 039°04'0 0.0
2018-Jun-10 05:58N 44°06' E 039°04'0 0.0
2018-Jun-10 05:28N 44°06' E 039°04'0 0.0
2018-Jun-10 04:58N 44°05' E 039°04'0 0.0
2018-Jun-10 04:28N 44°06' E 039°04'0 0.0
2018-Jun-10 03:58N 44°06' E 039°04'0 0.0
2018-Jun-10 03:28N 44°06' E 039°04'0 0.0
2018-Jun-10 02:58N 44°06' E 039°04'0 0.0
2018-Jun-10 02:28N 44°06' E 039°04'0 0.0
2018-Jun-10 01:58N 44°06' E 039°04'0 0.0
2018-Jun-10 01:28N 44°06' E 039°04'0 0.0
2018-Jun-10 00:58N 44°06' E 039°04'0 0.0
2018-Jun-10 00:28N 44°05' E 039°04'0 0.0
2018-Jun-09 23:58N 44°06' E 039°04'0 0.0
2018-Jun-09 23:28N 44°05' E 039°04'0 0.0
2018-Jun-09 22:58N 44°06' E 039°04'0 0.0
2018-Jun-09 22:28N 44°06' E 039°04'0 0.0
2018-Jun-09 21:58N 44°05' E 039°04'0 0.0
2018-Jun-09 21:28N 44°06' E 039°04'0 0.0
2018-Jun-09 20:58N 44°06' E 039°04'0 0.0
2018-Jun-09 20:28N 44°05' E 039°04'0 0.0
2018-Jun-09 19:58N 44°06' E 039°04'0 0.0
2018-Jun-09 19:28N 44°05' E 039°04'0 0.0
2018-Jun-09 18:58N 44°05' E 039°04'0 0.0
2018-Jun-09 18:28N 44°06' E 039°04'0 0.0
2018-Jun-09 17:58N 44°05' E 039°04'0 0.0
2018-Jun-09 17:28N 44°05' E 039°04'0 0.0
2018-Jun-09 16:58N 44°05' E 039°04'0 0.0
2018-Jun-09 16:28N 44°06' E 039°04'0 0.0
2018-Jun-09 15:58N 44°05' E 039°04'0 0.0
2018-Jun-09 14:58N 44°06' E 039°04'0 0.0
2018-Jun-09 14:28N 44°06' E 039°04'0 0.0
2018-Jun-09 13:58N 44°06' E 039°04'0 0.0
2018-Jun-09 13:28N 44°06' E 039°04'0 0.0
2018-Jun-09 12:58N 44°05' E 039°04'0 0.0
2018-Jun-09 12:28N 44°05' E 039°04'0 0.0
2018-Jun-09 11:58N 44°05' E 039°04'0 0.0
2018-Jun-09 11:28N 44°06' E 039°04'0 0.0
2018-Jun-09 10:58N 44°05' E 039°04'0 0.0
2018-Jun-09 10:28N 44°06' E 039°04'0 0.0
2018-Jun-09 09:58N 44°05' E 039°04'0 0.0
2018-Jun-09 09:28N 44°06' E 039°04'0 0.0
2018-Jun-09 08:58N 44°06' E 039°04'0 0.0
2018-Jun-09 08:28N 44°06' E 039°04'0 0.0
2018-Jun-09 07:58N 44°06' E 039°04'0 0.0
2018-Jun-09 07:28N 44°05' E 039°04'0 0.0
2018-Jun-09 06:58N 44°06' E 039°04'0 0.0
2018-Jun-09 06:28N 44°05' E 039°04'0 0.0
2018-Jun-09 05:58N 44°06' E 039°04'0 0.0
2018-Jun-09 05:28N 44°05' E 039°04'0 0.0
2018-Jun-09 04:58N 44°06' E 039°04'0 0.0
2018-Jun-09 04:28N 44°06' E 039°04'0 0.0
2018-Jun-09 03:58N 44°05' E 039°04'0 0.0
2018-Jun-09 03:28N 44°06' E 039°04'0 0.0
2018-Jun-09 02:58N 44°05' E 039°04'0 0.0
2018-Jun-09 02:28N 44°05' E 039°04'0 0.0
2018-Jun-09 01:58N 44°06' E 039°04'0 0.0
2018-Jun-09 01:29N 44°05' E 039°04'0 0.4
2018-Jun-09 01:00N 44°05' E 039°04'2 3.5
2018-Jun-09 00:30N 44°04' E 039°04'1 2.0
2018-Jun-08 23:59N 44°03' E 039°04'0 0.2
2018-Jun-08 23:30N 44°03' E 039°04'0 0.1
2018-Jun-08 23:00N 44°03' E 039°04'0 0.0
2018-Jun-08 22:30N 44°03' E 039°04'0 0.1
2018-Jun-08 22:00N 44°03' E 039°04'0 0.0
2018-Jun-08 21:30N 44°03' E 039°04'0 0.1
2018-Jun-08 20:54N 44°03' E 039°04'0 0.2
2018-Jun-08 20:30N 44°03' E 039°04'0 0.1
2018-Jun-08 20:00N 44°03' E 039°04'0 0.0
2018-Jun-08 19:30N 44°03' E 039°04'0 0.0
2018-Jun-08 19:00N 44°03' E 039°04'0 0.0
2018-Jun-08 18:30N 44°03' E 039°04'0 0.1
2018-Jun-08 18:00N 44°03' E 039°04'0 0.0
2018-Jun-08 17:30N 44°03' E 039°04'0 0.0
2018-Jun-08 17:00N 44°03' E 039°05'0 0.0
2018-Jun-08 16:30N 44°03' E 039°05'0 0.0
2018-Jun-08 16:00N 44°03' E 039°05'0 0.0
2018-Jun-08 15:30N 44°03' E 039°05'0 0.0
2018-Jun-08 15:00N 44°03' E 039°05'0 0.0
2018-Jun-08 14:30N 44°03' E 039°05'0 0.1
2018-Jun-08 14:00N 44°03' E 039°05'0 0.0
2018-Jun-08 13:30N 44°03' E 039°05'0 0.0
2018-Jun-08 13:00N 44°03' E 039°05'0 0.1
2018-Jun-08 12:30N 44°03' E 039°05'0 0.1
2018-Jun-08 12:00N 44°03' E 039°05'0 0.0
2018-Jun-08 11:30N 44°03' E 039°05'0 0.0
2018-Jun-08 11:00N 44°03' E 039°05'0 0.0
2018-Jun-08 10:30N 44°03' E 039°04'0 0.0
2018-Jun-08 10:00N 44°03' E 039°04'0 0.0
2018-Jun-08 09:30N 44°03' E 039°04'0 0.0
2018-Jun-08 09:00N 44°03' E 039°04'0 0.0
2018-Jun-08 08:30N 44°03' E 039°04'0 0.1
2018-Jun-08 08:00N 44°03' E 039°04'0 0.0
2018-Jun-08 07:30N 44°03' E 039°04'0 0.0
2018-Jun-08 07:00N 44°03' E 039°05'0 0.0
2018-Jun-08 06:30N 44°03' E 039°04'0 0.1
2018-Jun-08 06:00N 44°03' E 039°05'0 0.2
2018-Jun-08 05:30N 44°03' E 039°05'0 0.1
2018-Jun-08 05:00N 44°03' E 039°04'0 0.0
2018-Jun-08 04:30N 44°03' E 039°04'0 0.0
2018-Jun-08 04:00N 44°03' E 039°04'0 0.0
2018-Jun-08 03:30N 44°03' E 039°04'0 0.0
2018-Jun-08 03:00N 44°03' E 039°04'0 0.1
2018-Jun-08 02:30N 44°03' E 039°05'0 0.0
2018-Jun-08 02:00N 44°03' E 039°05'0 0.0
2018-Jun-08 01:27N 44°03' E 039°05'0 0.0
2018-Jun-08 01:00N 44°03' E 039°05'0 0.0
2018-Jun-08 00:30N 44°03' E 039°05'0 0.0
2018-Jun-08 00:00N 44°03' E 039°05'0 0.0
2018-Jun-07 23:30N 44°03' E 039°04'0 0.0
2018-Jun-07 23:00N 44°03' E 039°04'0 0.0
2018-Jun-07 22:30N 44°03' E 039°04'0 0.0
2018-Jun-07 22:00N 44°03' E 039°04'0 0.0
2018-Jun-07 21:30N 44°03' E 039°04'0 0.0
2018-Jun-07 21:00N 44°03' E 039°04'0 0.0
2018-Jun-07 20:30N 44°03' E 039°04'0 0.0
2018-Jun-07 20:00N 44°03' E 039°04'0 0.0
2018-Jun-07 19:30N 44°03' E 039°04'0 0.0
2018-Jun-07 19:00N 44°03' E 039°04'0 0.0
2018-Jun-07 18:30N 44°03' E 039°05'0 0.0
2018-Jun-07 18:00N 44°03' E 039°05'0 0.0
2018-Jun-07 17:30N 44°03' E 039°05'0 0.0
2018-Jun-07 17:00N 44°03' E 039°05'0 0.0
2018-Jun-07 16:30N 44°03' E 039°05'0 0.0
2018-Jun-07 16:00N 44°03' E 039°05'0 0.0
2018-Jun-07 15:30N 44°03' E 039°05'0 0.0
2018-Jun-07 15:00N 44°03' E 039°05'0 0.0
2018-Jun-07 14:30N 44°03' E 039°04'0 0.0
2018-Jun-07 14:00N 44°03' E 039°05'0 0.1
2018-Jun-07 13:30N 44°03' E 039°05'0 0.0
2018-Jun-07 13:00N 44°03' E 039°05'0 0.0
2018-Jun-07 12:30N 44°03' E 039°05'0 0.1
2018-Jun-07 12:00N 44°03' E 039°05'0 0.0
2018-Jun-07 11:30N 44°03' E 039°05'0 0.0
2018-Jun-07 11:00N 44°03' E 039°05'0 0.0
2018-Jun-07 10:30N 44°03' E 039°05'0 0.0
2018-Jun-07 10:00N 44°03' E 039°05'0 0.1
2018-Jun-07 09:30N 44°03' E 039°05'0 0.1
2018-Jun-07 09:00N 44°03' E 039°05'0 0.0
2018-Jun-07 08:30N 44°03' E 039°04'0 0.0
2018-Jun-07 08:00N 44°03' E 039°04'0 0.0
2018-Jun-07 07:30N 44°03' E 039°04'0 0.0
2018-Jun-07 07:00N 44°03' E 039°04'0 0.0
2018-Jun-07 06:30N 44°03' E 039°04'0 0.0
2018-Jun-07 06:00N 44°03' E 039°04'0 0.0
2018-Jun-07 05:27N 44°03' E 039°04'0 0.0
2018-Jun-07 05:00N 44°03' E 039°04'0 0.0
2018-Jun-07 04:30N 44°03' E 039°04'0 0.0
2018-Jun-07 04:00N 44°03' E 039°04'0 0.0
2018-Jun-07 03:30N 44°03' E 039°04'0 0.1
2018-Jun-07 03:00N 44°03' E 039°04'0 0.0
2018-Jun-07 02:30N 44°03' E 039°04'0 0.0
2018-Jun-07 02:00N 44°03' E 039°04'0 0.0
2018-Jun-07 01:30N 44°03' E 039°04'0 0.1
2018-Jun-07 01:00N 44°03' E 039°04'0 0.1
2018-Jun-07 00:30N 44°03' E 039°04'0 0.0
2018-Jun-07 00:00N 44°03' E 039°04'0 0.1
2018-Jun-06 23:30N 44°03' E 039°04'0 0.0
2018-Jun-06 23:00N 44°03' E 039°04'0 0.1
2018-Jun-06 22:30N 44°03' E 039°04'0 0.1
2018-Jun-06 22:00N 44°03' E 039°04'0 0.1
2018-Jun-06 21:30N 44°03' E 039°04'0 0.0
2018-Jun-06 21:00N 44°03' E 039°04'0 0.0
2018-Jun-06 20:30N 44°03' E 039°04'0 0.0
2018-Jun-06 20:00N 44°03' E 039°04'0 0.0
2018-Jun-06 19:30N 44°03' E 039°04'0 0.1
2018-Jun-06 19:00N 44°03' E 039°04'0 0.0
2018-Jun-06 18:30N 44°03' E 039°04'0 0.0
2018-Jun-06 18:00N 44°03' E 039°04'0 0.0
2018-Jun-06 17:30N 44°03' E 039°04'0 0.0
2018-Jun-06 17:00N 44°03' E 039°04'0 0.0
2018-Jun-06 16:30N 44°03' E 039°04'0 0.0
2018-Jun-06 16:00N 44°03' E 039°04'0 0.0
2018-Jun-06 15:30N 44°03' E 039°04'0 0.0
2018-Jun-06 15:00N 44°03' E 039°04'0 0.0
2018-Jun-06 14:30N 44°03' E 039°04'0 0.0
2018-Jun-06 14:00N 44°03' E 039°04'0 0.0
2018-Jun-06 13:30N 44°03' E 039°04'0 0.0
2018-Jun-06 13:00N 44°03' E 039°04'0 0.1
2018-Jun-06 12:30N 44°03' E 039°04'0 0.0
2018-Jun-06 12:00N 44°03' E 039°04'0 0.0
2018-Jun-06 11:30N 44°03' E 039°04'0 0.0
2018-Jun-06 11:00N 44°03' E 039°04'0 0.0
2018-Jun-06 10:30N 44°03' E 039°04'0 0.0
2018-Jun-06 10:00N 44°03' E 039°04'0 0.0
2018-Jun-06 09:30N 44°03' E 039°04'0 0.0
2018-Jun-06 08:54N 44°03' E 039°04'0 0.1
2018-Jun-06 08:30N 44°03' E 039°04'0 0.0
2018-Jun-06 08:00N 44°03' E 039°04'0 0.0
2018-Jun-06 07:30N 44°03' E 039°04'0 0.0
2018-Jun-06 07:00N 44°03' E 039°04'0 0.0
2018-Jun-06 06:30N 44°03' E 039°04'0 0.0
2018-Jun-06 06:00N 44°03' E 039°04'0 0.0
2018-Jun-06 05:30N 44°03' E 039°04'0 0.0
2018-Jun-06 05:00N 44°03' E 039°04'0 0.0
2018-Jun-06 04:30N 44°03' E 039°04'0 0.0
2018-Jun-06 04:00N 44°03' E 039°04'0 0.0
2018-Jun-06 03:30N 44°03' E 039°04'0 0.0
2018-Jun-06 03:00N 44°03' E 039°04'0 0.0
2018-Jun-06 02:30N 44°03' E 039°04'0 0.0
2018-Jun-06 02:00N 44°03' E 039°04'0 0.0
2018-Jun-06 01:30N 44°03' E 039°04'0 0.0
2018-Jun-06 01:00N 44°03' E 039°04'0 0.0
2018-Jun-06 00:30N 44°03' E 039°04'0 0.0
2018-Jun-06 00:00N 44°03' E 039°04'0 0.0
2018-Jun-05 23:30N 44°03' E 039°04'0 0.0
2018-Jun-05 23:00N 44°03' E 039°04'  

Dump ship's entire track history